Time;durP1;ratioP1;P1;durP2;ratioP2;P2;SDS_P1;SDS_P2;PMS_P1;PMS_P2;Temp;Humidity;BMP_temperature;BMP_pressure;BME280_temperature;BME280_humidity;BME280_pressure;Samples;Min_cycle;Max_cycle;Signal;HPM_P1;HPM_P2
2021/07/08 00:00:28;;;;;;;3.60;2.85;;;;;;;;;;5062215;28;20741;-56
2021/07/08 00:02:54;;;;;;;3.20;2.92;;;;;;;;;;5067913;28;20193;-57
2021/07/08 00:05:22;;;;;;;4.03;2.58;;;;;;;;;;5059245;28;20182;-57
2021/07/08 00:07:48;;;;;;;6.32;2.85;;;;;;;;;;5068570;28;20664;-57
2021/07/08 00:10:18;;;;;;;5.50;2.80;;;;;;;;;;5060095;28;20349;-59
2021/07/08 00:12:43;;;;;;;3.78;2.55;;;;;;;;;;5068033;28;20602;-58
2021/07/08 00:15:12;;;;;;;3.00;2.50;;;;;;;;;;5062281;28;20197;-57
2021/07/08 00:17:39;;;;;;;3.83;2.93;;;;;;;;;;5065343;28;20188;-59
2021/07/08 00:20:10;;;;;;;4.43;2.60;;;;;;;;;;5065983;28;20201;-61
2021/07/08 00:22:36;;;;;;;4.38;2.72;;;;;;;;;;5065319;28;20670;-60
2021/07/08 00:25:08;;;;;;;4.63;2.83;;;;;;;;;;5064238;28;20184;-58
2021/07/08 00:27:33;;;;;;;3.37;2.60;;;;;;;;;;5067735;28;20775;-59
2021/07/08 00:29:58;;;;;;;5.10;2.70;;;;;;;;;;5050755;28;20292;-57
2021/07/08 00:32:24;;;;;;;6.07;2.87;;;;;;;;;;5065768;28;20192;-58
2021/07/08 00:34:49;;;;;;;5.00;2.83;;;;;;;;;;5051542;28;20243;-59
2021/07/08 00:37:14;;;;;;;3.70;2.70;;;;;;;;;;5065257;28;20275;-57
2021/07/08 00:39:39;;;;;;;8.15;3.17;;;;;;;;;;5067585;28;20201;-59
2021/07/08 00:42:05;;;;;;;7.03;3.20;;;;;;;;;;5066764;28;20835;-56
2021/07/08 00:44:30;;;;;;;4.13;2.90;;;;;;;;;;5064063;28;20181;-59
2021/07/08 00:46:55;;;;;;;3.05;2.83;;;;;;;;;;5066633;28;20197;-58
2021/07/08 00:49:21;;;;;;;5.40;3.13;;;;;;;;;;5059310;28;20747;-58
2021/07/08 00:51:46;;;;;;;7.78;3.00;;;;;;;;;;5067848;28;20199;-60
2021/07/08 00:54:12;;;;;;;5.93;2.70;;;;;;;;;;5066750;28;20699;-57
2021/07/08 00:56:37;;;;;;;3.88;2.47;;;;;;;;;;5037640;28;20197;-58
2021/07/08 00:59:08;;;;;;;4.75;2.55;;;;;;;;;;5056584;28;20204;-60
2021/07/08 01:01:33;;;;;;;8.35;2.92;;;;;;;;;;5068642;28;20188;-60
2021/07/08 01:04:02;;;;;;;4.45;3.22;;;;;;;;;;5071105;28;20177;-60
2021/07/08 01:06:27;;;;;;;4.32;2.63;;;;;;;;;;5071949;28;20185;-57
2021/07/08 01:08:53;;;;;;;5.05;2.58;;;;;;;;;;5070445;28;20205;-57
2021/07/08 01:11:19;;;;;;;4.00;2.60;;;;;;;;;;5071995;28;20227;-58
2021/07/08 01:13:44;;;;;;;5.25;2.70;;;;;;;;;;5070737;28;20214;-58
2021/07/08 01:16:09;;;;;;;5.32;2.55;;;;;;;;;;5050739;28;20196;-58
2021/07/08 01:18:34;;;;;;;6.43;2.55;;;;;;;;;;5072912;28;20185;-57
2021/07/08 01:21:23;;;;;;;4.15;2.50;;;;;;;;;;5070348;28;20277;-62
2021/07/08 01:23:49;;;;;;;7.00;2.80;;;;;;;;;;5069512;28;20189;-57
2021/07/08 01:26:14;;;;;;;15.43;2.83;;;;;;;;;;5061232;28;20197;-59
2021/07/08 01:28:39;;;;;;;7.15;2.45;;;;;;;;;;5070495;28;20229;-58
2021/07/08 01:31:08;;;;;;;7.18;2.80;;;;;;;;;;5071011;28;20536;-57
2021/07/08 01:33:33;;;;;;;9.15;2.65;;;;;;;;;;5059966;28;21020;-57
2021/07/08 01:35:59;;;;;;;5.43;2.35;;;;;;;;;;5070219;28;20304;-56
2021/07/08 01:38:25;;;;;;;8.40;2.42;;;;;;;;;;5050791;28;20561;-58
2021/07/08 01:40:51;;;;;;;6.78;2.78;;;;;;;;;;5063788;28;20185;-57
2021/07/08 01:43:17;;;;;;;7.00;2.80;;;;;;;;;;5060083;28;20185;-59
2021/07/08 01:45:42;;;;;;;3.75;2.50;;;;;;;;;;5069816;28;20209;-58
2021/07/08 01:48:07;;;;;;;6.95;3.00;;;;;;;;;;5071902;28;20216;-57
2021/07/08 01:50:33;;;;;;;9.30;3.08;;;;;;;;;;5052304;28;20584;-59
2021/07/08 01:52:58;;;;;;;8.07;3.03;;;;;;;;;;5070189;28;20201;-60
2021/07/08 01:55:23;;;;;;;7.43;2.38;;;;;;;;;;5060833;28;20217;-57
2021/07/08 01:57:52;;;;;;;8.65;3.00;;;;;;;;;;5069257;28;20189;-58
2021/07/08 02:00:19;;;;;;;13.77;2.85;;;;;;;;;;5065375;28;20439;-58
2021/07/08 02:02:45;;;;;;;8.48;3.20;;;;;;;;;;5064656;28;20269;-57
2021/07/08 02:05:10;;;;;;;12.40;3.22;;;;;;;;;;5065240;28;20268;-58
2021/07/08 02:07:37;;;;;;;18.00;3.70;;;;;;;;;;5053075;28;20181;-57
2021/07/08 02:10:11;;;;;;;14.48;3.20;;;;;;;;;;5070150;28;20233;-58
2021/07/08 02:12:41;;;;;;;10.60;3.13;;;;;;;;;;5069725;28;20764;-58
2021/07/08 02:15:08;;;;;;;6.38;2.75;;;;;;;;;;5066805;28;20196;-60
2021/07/08 02:17:34;;;;;;;12.13;3.90;;;;;;;;;;5070387;28;20185;-56
2021/07/08 02:20:00;;;;;;;12.90;3.07;;;;;;;;;;5056887;28;20748;-60
2021/07/08 02:22:25;;;;;;;9.93;3.33;;;;;;;;;;5056988;28;20181;-57
2021/07/08 02:24:50;;;;;;;7.90;3.27;;;;;;;;;;5069078;28;20190;-56
2021/07/08 02:27:16;;;;;;;7.93;3.50;;;;;;;;;;5072243;28;20260;-57
2021/07/08 02:29:41;;;;;;;9.17;4.30;;;;;;;;;;5069621;28;20229;-60
2021/07/08 02:32:08;;;;;;;8.33;4.10;;;;;;;;;;5068669;28;20189;-59
2021/07/08 02:34:36;;;;;;;10.03;4.63;;;;;;;;;;5067744;28;20185;-57
2021/07/08 02:37:03;;;;;;;14.00;4.87;;;;;;;;;;5069871;28;20570;-58
2021/07/08 02:39:28;;;;;;;9.70;4.80;;;;;;;;;;5069553;28;20215;-57
2021/07/08 02:41:53;;;;;;;7.20;4.30;;;;;;;;;;5069574;28;20182;-61
2021/07/08 02:44:19;;;;;;;9.13;4.80;;;;;;;;;;5068158;28;20196;-57
2021/07/08 02:46:44;;;;;;;7.30;4.33;;;;;;;;;;5051111;28;20578;-59
2021/07/08 02:49:09;;;;;;;9.33;4.70;;;;;;;;;;5038958;28;20216;-58
2021/07/08 02:51:35;;;;;;;9.60;5.70;;;;;;;;;;5070300;28;20784;-59
2021/07/08 02:54:00;;;;;;;9.52;4.05;;;;;;;;;;5070670;28;20230;-57
2021/07/08 02:56:25;;;;;;;10.27;3.37;;;;;;;;;;5061882;28;20673;-57
2021/07/08 02:58:50;;;;;;;15.75;3.95;;;;;;;;;;5068681;28;20248;-56
2021/07/08 03:01:16;;;;;;;4.68;2.80;;;;;;;;;;5050664;28;20185;-60
2021/07/08 03:03:41;;;;;;;7.88;3.95;;;;;;;;;;5071656;28;20346;-56
2021/07/08 03:06:06;;;;;;;6.85;3.80;;;;;;;;;;5071719;28;20185;-56
2021/07/08 03:08:32;;;;;;;8.60;4.05;;;;;;;;;;5076670;22;20219;-79
2021/07/08 03:10:58;;;;;;;4.78;3.97;;;;;;;;;;5055882;28;20200;-79
2021/07/08 03:13:23;;;;;;;8.02;4.45;;;;;;;;;;5069996;28;20192;-78
2021/07/08 03:15:48;;;;;;;12.17;4.50;;;;;;;;;;5064842;28;20189;-78
2021/07/08 03:18:14;;;;;;;10.07;4.40;;;;;;;;;;5089387;28;20558;-80
2021/07/08 03:20:45;;;;;;;11.77;5.23;;;;;;;;;;5074244;28;20261;-79
2021/07/08 03:23:11;;;;;;;10.03;5.00;;;;;;;;;;5080339;28;20191;-80
2021/07/08 03:25:36;;;;;;;11.13;5.17;;;;;;;;;;5086172;28;20749;-80
2021/07/08 03:28:02;;;;;;;11.87;5.07;;;;;;;;;;5084152;28;20284;-79
2021/07/08 03:30:30;;;;;;;12.37;5.57;;;;;;;;;;5087095;28;20211;-79
2021/07/08 03:32:55;;;;;;;10.87;5.57;;;;;;;;;;5081217;28;20230;-80
2021/07/08 03:35:21;;;;;;;8.70;5.27;;;;;;;;;;5081902;28;20256;-81
2021/07/08 03:37:46;;;;;;;7.50;4.87;;;;;;;;;;5075303;28;20211;-79
2021/07/08 03:40:16;;;;;;;9.30;4.87;;;;;;;;;;5075383;28;20618;-80
2021/07/08 03:42:43;;;;;;;12.27;4.80;;;;;;;;;;5077129;28;20737;-78
2021/07/08 03:45:09;;;;;;;12.05;5.07;;;;;;;;;;5072560;28;20185;-79
2021/07/08 03:47:35;;;;;;;12.00;5.10;;;;;;;;;;5086979;28;20292;-80
2021/07/08 03:50:00;;;;;;;10.27;5.30;;;;;;;;;;5068524;28;20287;-80
2021/07/08 03:52:26;;;;;;;8.43;4.87;;;;;;;;;;5083405;28;20626;-80
2021/07/08 03:54:51;;;;;;;9.77;5.13;;;;;;;;;;5087834;28;20223;-78
2021/07/08 03:57:16;;;;;;;11.60;5.07;;;;;;;;;;5085839;28;20209;-79
2021/07/08 03:59:41;;;;;;;10.23;4.83;;;;;;;;;;5084826;28;20176;-79
2021/07/08 04:02:07;;;;;;;8.03;5.23;;;;;;;;;;5085438;28;20193;-80
2021/07/08 04:04:38;;;;;;;8.93;6.57;;;;;;;;;;5070174;28;20184;-81
2021/07/08 04:07:04;;;;;;;13.23;6.30;;;;;;;;;;5081393;28;20233;-79
2021/07/08 04:09:30;;;;;;;7.37;5.83;;;;;;;;;;5083882;28;20205;-80
2021/07/08 04:11:55;;;;;;;6.50;4.50;;;;;;;;;;5080211;28;20710;-80
2021/07/08 04:14:20;;;;;;;6.87;4.93;;;;;;;;;;5064902;28;20647;-79
2021/07/08 04:16:45;;;;;;;9.83;5.60;;;;;;;;;;5083237;28;20231;-78
2021/07/08 04:19:10;;;;;;;16.02;5.57;;;;;;;;;;5087249;28;20191;-79
2021/07/08 04:21:36;;;;;;;12.43;5.53;;;;;;;;;;5086345;28;20214;-78
2021/07/08 04:24:01;;;;;;;16.05;5.40;;;;;;;;;;5081367;28;20204;-79
2021/07/08 04:26:26;;;;;;;9.40;4.63;;;;;;;;;;5089789;28;20606;-80
2021/07/08 04:28:52;;;;;;;10.05;5.45;;;;;;;;;;5065743;28;20202;-80
2021/07/08 04:31:17;;;;;;;14.02;5.22;;;;;;;;;;5082903;28;20192;-78
2021/07/08 04:33:43;;;;;;;13.18;5.82;;;;;;;;;;5085584;28;20192;-79
2021/07/08 04:36:11;;;;;;;13.60;5.97;;;;;;;;;;5079545;28;20715;-79
2021/07/08 04:38:37;;;;;;;7.43;6.18;;;;;;;;;;5073280;28;20570;-79
2021/07/08 04:41:02;;;;;;;11.45;6.32;;;;;;;;;;5088156;28;20271;-79
2021/07/08 04:43:28;;;;;;;13.43;6.20;;;;;;;;;;5085338;28;20184;-79
2021/07/08 04:45:53;;;;;;;10.98;6.32;;;;;;;;;;5060471;28;20208;-79
2021/07/08 04:48:19;;;;;;;10.02;6.22;;;;;;;;;;5086883;28;20264;-80
2021/07/08 04:50:44;;;;;;;11.95;6.07;;;;;;;;;;5085776;28;20242;-79
2021/07/08 04:53:14;;;;;;;11.52;6.00;;;;;;;;;;5089975;28;20216;-79
2021/07/08 04:55:39;;;;;;;10.48;6.82;;;;;;;;;;5084632;28;20184;-80
2021/07/08 04:58:05;;;;;;;9.05;7.45;;;;;;;;;;5085225;28;20735;-78
2021/07/08 05:00:30;;;;;;;13.82;8.35;;;;;;;;;;5075523;28;20185;-81
2021/07/08 05:02:55;;;;;;;10.65;8.63;;;;;;;;;;5082058;28;20250;-79
2021/07/08 05:05:21;;;;;;;11.63;8.93;;;;;;;;;;5074692;28;20637;-80
2021/07/08 05:07:49;;;;;;;12.40;9.07;;;;;;;;;;5088683;28;20292;-79
2021/07/08 05:10:15;;;;;;;13.23;7.95;;;;;;;;;;5074150;28;20197;-80
2021/07/08 05:12:41;;;;;;;11.07;8.48;;;;;;;;;;5086420;28;20329;-80
2021/07/08 05:15:09;;;;;;;12.98;7.85;;;;;;;;;;5077690;28;20268;-80
2021/07/08 05:17:35;;;;;;;13.10;9.10;;;;;;;;;;5084016;28;20201;-79
2021/07/08 05:20:01;;;;;;;10.48;9.27;;;;;;;;;;5086213;28;20195;-78
2021/07/08 05:22:26;;;;;;;14.88;9.68;;;;;;;;;;5056734;28;20241;-78
2021/07/08 05:24:52;;;;;;;12.00;9.60;;;;;;;;;;5086702;28;20192;-78
2021/07/08 05:27:17;;;;;;;14.50;10.52;;;;;;;;;;5085142;28;20215;-79
2021/07/08 05:29:47;;;;;;;11.85;10.35;;;;;;;;;;5080127;28;20660;-79
2021/07/08 05:32:13;;;;;;;16.63;10.55;;;;;;;;;;5084227;28;20248;-78
2021/07/08 05:34:39;;;;;;;11.52;10.32;;;;;;;;;;5087633;28;20214;-79
2021/07/08 05:37:05;;;;;;;14.98;11.43;;;;;;;;;;5082832;28;20219;-78
2021/07/08 05:39:30;;;;;;;15.15;10.88;;;;;;;;;;5083365;28;20810;-79
2021/07/08 05:41:55;;;;;;;12.88;10.43;;;;;;;;;;5085863;28;20652;-79
2021/07/08 05:44:21;;;;;;;15.73;11.10;;;;;;;;;;5086294;28;20193;-80
2021/07/08 05:46:46;;;;;;;14.90;11.90;;;;;;;;;;5083967;28;20208;-80
2021/07/08 05:49:11;;;;;;;12.43;11.13;;;;;;;;;;5079948;28;20193;-78
2021/07/08 05:51:37;;;;;;;15.77;11.75;;;;;;;;;;5080972;28;20192;-77
2021/07/08 05:54:02;;;;;;;16.38;10.40;;;;;;;;;;5069258;28;20204;-79
2021/07/08 05:56:28;;;;;;;18.17;13.10;;;;;;;;;;5081538;28;20212;-78
2021/07/08 05:58:53;;;;;;;14.55;11.93;;;;;;;;;;5092570;28;20208;-79
2021/07/08 06:01:21;;;;;;;15.93;12.27;;;;;;;;;;5089044;28;20176;-79
2021/07/08 06:03:47;;;;;;;12.98;11.20;;;;;;;;;;5085745;28;20188;-79
2021/07/08 06:06:12;;;;;;;17.73;12.45;;;;;;;;;;5081931;28;20281;-78
2021/07/08 06:08:37;;;;;;;19.83;12.98;;;;;;;;;;5081530;28;20220;-78
2021/07/08 06:11:03;;;;;;;13.98;11.85;;;;;;;;;;5079156;28;20705;-76
2021/07/08 06:13:28;;;;;;;15.02;11.98;;;;;;;;;;5088751;28;20180;-76
2021/07/08 06:15:53;;;;;;;13.18;11.85;;;;;;;;;;5074152;28;20181;-78
2021/07/08 06:18:18;;;;;;;17.00;12.23;;;;;;;;;;5069869;28;20253;-77
2021/07/08 06:20:44;;;;;;;15.75;11.23;;;;;;;;;;5082806;28;20185;-80
2021/07/08 06:23:09;;;;;;;13.20;11.15;;;;;;;;;;5084411;28;20614;-79
2021/07/08 06:25:35;;;;;;;18.08;12.60;;;;;;;;;;5081762;28;20200;-80
2021/07/08 06:28:00;;;;;;;15.50;12.07;;;;;;;;;;5084659;28;20749;-80
2021/07/08 06:30:25;;;;;;;12.63;9.77;;;;;;;;;;5084197;28;20216;-77
2021/07/08 06:32:50;;;;;;;15.45;11.10;;;;;;;;;;5075232;28;20711;-79
2021/07/08 06:35:18;;;;;;;10.90;9.65;;;;;;;;;;5070455;28;20180;-78
2021/07/08 06:37:45;;;;;;;15.48;8.85;;;;;;;;;;5089616;28;20200;-79
2021/07/08 06:40:12;;;;;;;12.30;8.80;;;;;;;;;;5089158;28;20204;-78
2021/07/08 06:42:38;;;;;;;8.73;7.90;;;;;;;;;;5089592;28;20177;-79
2021/07/08 06:45:05;;;;;;;12.38;7.75;;;;;;;;;;5085549;28;20644;-77
2021/07/08 06:47:37;;;;;;;8.68;7.40;;;;;;;;;;5086824;28;20216;-77
2021/07/08 06:50:07;;;;;;;10.15;8.23;;;;;;;;;;5083690;28;20288;-81
2021/07/08 06:52:32;;;;;;;9.07;8.27;;;;;;;;;;5082606;28;20257;-80
2021/07/08 06:54:57;;;;;;;12.85;8.98;;;;;;;;;;5078110;28;20659;-79
2021/07/08 06:57:23;;;;;;;8.50;6.90;;;;;;;;;;5077581;28;20335;-80
2021/07/08 06:59:48;;;;;;;10.30;7.07;;;;;;;;;;5076831;28;20176;-78
2021/07/08 07:02:13;;;;;;;11.73;6.78;;;;;;;;;;5082387;28;20306;-80
2021/07/08 07:04:39;;;;;;;9.95;6.35;;;;;;;;;;5084602;28;20828;-79
2021/07/08 07:07:04;;;;;;;7.88;5.45;;;;;;;;;;5058337;28;20188;-79
2021/07/08 07:09:29;;;;;;;6.22;5.70;;;;;;;;;;5076149;28;20293;-79
2021/07/08 07:11:55;;;;;;;5.75;4.90;;;;;;;;;;5080004;28;20189;-79
2021/07/08 07:14:20;;;;;;;5.80;4.57;;;;;;;;;;5076752;28;20272;-81
2021/07/08 07:16:45;;;;;;;4.60;3.90;;;;;;;;;;5084180;28;20211;-80
2021/07/08 07:19:10;;;;;;;4.65;4.00;;;;;;;;;;5075483;28;20641;-79
2021/07/08 07:21:36;;;;;;;5.35;4.57;;;;;;;;;;5082969;28;20173;-81
2021/07/08 07:24:02;;;;;;;9.25;4.72;;;;;;;;;;5089573;28;20870;-80
2021/07/08 07:26:27;;;;;;;6.28;3.70;;;;;;;;;;5080222;28;20204;-80
2021/07/08 07:28:53;;;;;;;7.90;4.00;;;;;;;;;;5081776;28;20608;-79
2021/07/08 07:31:18;;;;;;;6.90;3.05;;;;;;;;;;5078327;28;20185;-78
2021/07/08 07:33:43;;;;;;;7.85;3.15;;;;;;;;;;5083566;28;20184;-78
2021/07/08 07:36:10;;;;;;;4.43;2.72;;;;;;;;;;5082232;28;20216;-79
2021/07/08 07:38:37;;;;;;;7.10;3.00;;;;;;;;;;5086147;28;20230;-79
2021/07/08 07:41:02;;;;;;;4.55;2.70;;;;;;;;;;5076491;28;20260;-79
2021/07/08 07:43:28;;;;;;;3.38;2.97;;;;;;;;;;5079391;28;20629;-79
2021/07/08 07:45:53;;;;;;;5.43;3.08;;;;;;;;;;5074837;28;20208;-76
2021/07/08 07:48:18;;;;;;;6.18;2.92;;;;;;;;;;5087415;28;20672;-78
2021/07/08 07:50:44;;;;;;;6.97;3.08;;;;;;;;;;5084754;28;20224;-79
2021/07/08 07:53:10;;;;;;;3.47;2.83;;;;;;;;;;5075626;28;20779;-76
2021/07/08 07:55:35;;;;;;;2.90;2.60;;;;;;;;;;5077281;28;20254;-76
2021/07/08 07:58:01;;;;;;;7.85;2.97;;;;;;;;;;5074021;28;20201;-76
2021/07/08 08:00:28;;;;;;;4.22;2.88;;;;;;;;;;5060003;28;20671;-77
2021/07/08 08:02:54;;;;;;;5.22;2.90;;;;;;;;;;5087757;28;20180;-77
2021/07/08 08:05:23;;;;;;;5.13;2.75;;;;;;;;;;5086468;28;20188;-77
2021/07/08 08:10:34;;;;;;;7.63;3.88;;;;;;;;;;5081867;28;20208;-76
2021/07/08 08:12:59;;;;;;;5.35;3.50;;;;;;;;;;5071651;28;20185;-76
2021/07/08 08:15:25;;;;;;;5.65;2.80;;;;;;;;;;5078006;28;20658;-75
2021/07/08 08:17:51;;;;;;;2.50;2.30;;;;;;;;;;5077321;28;20210;-75
2021/07/08 08:20:17;;;;;;;4.55;2.97;;;;;;;;;;5070455;28;20184;-77
2021/07/08 08:22:42;;;;;;;4.47;3.22;;;;;;;;;;5069121;28;20279;-77
2021/07/08 08:25:10;;;;;;;5.00;3.13;;;;;;;;;;5084934;28;20698;-76
2021/07/08 08:27:37;;;;;;;5.95;3.47;;;;;;;;;;5076108;28;20232;-75
2021/07/08 08:30:04;;;;;;;4.40;3.60;;;;;;;;;;5075610;28;20193;-74
2021/07/08 08:32:29;;;;;;;4.93;3.20;;;;;;;;;;5059621;28;20754;-77
2021/07/08 08:34:54;;;;;;;4.00;3.28;;;;;;;;;;5078924;28;20209;-76
2021/07/08 08:37:20;;;;;;;5.40;3.90;;;;;;;;;;5085832;22;20316;-59
2021/07/08 08:39:45;;;;;;;4.45;3.58;;;;;;;;;;5054862;28;20201;-59
2021/07/08 08:42:10;;;;;;;6.28;4.47;;;;;;;;;;5049723;28;20204;-60
2021/07/08 08:44:36;;;;;;;7.68;4.22;;;;;;;;;;5068471;28;20196;-60
2021/07/08 08:47:06;;;;;;;4.90;3.67;;;;;;;;;;5061570;28;20707;-59
2021/07/08 08:49:31;;;;;;;4.55;3.72;;;;;;;;;;5043200;28;20209;-59
2021/07/08 08:51:58;;;;;;;5.40;4.90;;;;;;;;;;5067145;28;20271;-60
2021/07/08 08:54:23;;;;;;;8.77;5.35;;;;;;;;;;5054366;28;20185;-60
2021/07/08 08:56:48;;;;;;;6.32;4.85;;;;;;;;;;5054875;28;20724;-59
2021/07/08 08:59:13;;;;;;;9.15;6.00;;;;;;;;;;5046882;28;20213;-58
2021/07/08 09:01:39;;;;;;;6.18;5.57;;;;;;;;;;5061819;28;20264;-58
2021/07/08 09:04:04;;;;;;;10.43;5.55;;;;;;;;;;5058868;28;20189;-59
2021/07/08 09:06:38;;;;;;;5.93;5.40;;;;;;;;;;5053450;28;20327;-60
2021/07/08 09:09:09;;;;;;;6.57;5.70;;;;;;;;;;5051292;28;20224;-58
2021/07/08 09:11:35;;;;;;;6.18;5.57;;;;;;;;;;5063375;28;20203;-59
2021/07/08 09:14:05;;;;;;;9.30;5.57;;;;;;;;;;5054888;28;20189;-58
2021/07/08 09:16:39;;;;;;;6.40;5.38;;;;;;;;;;5049053;28;20186;-60
2021/07/08 09:19:19;;;;;;;5.40;4.57;;;;;;;;;;5062759;28;20288;-60
2021/07/08 09:21:52;;;;;;;5.32;4.82;;;;;;;;;;5059966;28;20775;-59
2021/07/08 09:24:29;;;;;;;7.90;4.50;;;;;;;;;;5052290;28;20305;-59
2021/07/08 09:26:56;;;;;;;4.55;4.05;;;;;;;;;;5070459;28;20192;-59
2021/07/08 09:29:24;;;;;;;6.03;4.05;;;;;;;;;;5069394;28;20292;-60
2021/07/08 09:31:55;;;;;;;5.57;4.20;;;;;;;;;;5071048;28;20193;-58
2021/07/08 09:34:30;;;;;;;6.85;4.25;;;;;;;;;;5069167;28;20649;-61
2021/07/08 09:37:15;;;;;;;5.22;4.68;;;;;;;;;;5063719;28;20283;-57
2021/07/08 09:39:54;;;;;;;4.97;4.22;;;;;;;;;;5059768;28;20219;-58
2021/07/08 09:42:33;;;;;;;4.95;4.00;;;;;;;;;;5070617;28;20185;-60
2021/07/08 09:45:10;;;;;;;5.70;4.50;;;;;;;;;;5052880;28;20192;-59
2021/07/08 09:47:41;;;;;;;4.45;4.00;;;;;;;;;;5059492;28;20192;-59
2021/07/08 09:50:11;;;;;;;5.68;4.03;;;;;;;;;;5069278;28;20282;-59
2021/07/08 09:52:38;;;;;;;5.15;3.53;;;;;;;;;;5055441;28;20274;-60
2021/07/08 09:55:19;;;;;;;4.30;3.55;;;;;;;;;;5058651;28;20181;-59
2021/07/08 09:57:46;;;;;;;4.40;4.00;;;;;;;;;;5067171;28;20185;-60
2021/07/08 10:00:17;;;;;;;5.60;4.03;;;;;;;;;;5067557;28;20205;-58
2021/07/08 10:02:43;;;;;;;5.93;4.30;;;;;;;;;;5069193;28;20182;-58
2021/07/08 10:05:09;;;;;;;6.03;4.20;;;;;;;;;;5051341;28;20204;-59
2021/07/08 10:07:35;;;;;;;6.70;5.40;;;;;;;;;;5057964;28;20676;-59
2021/07/08 10:10:01;;;;;;;4.82;4.47;;;;;;;;;;5051185;28;20220;-59
2021/07/08 10:12:26;;;;;;;10.15;6.63;;;;;;;;;;5067119;28;20185;-57
2021/07/08 10:14:52;;;;;;;7.70;6.65;;;;;;;;;;5068983;28;20190;-60
2021/07/08 10:17:20;;;;;;;5.25;4.70;;;;;;;;;;5051101;28;20606;-60
2021/07/08 10:19:47;;;;;;;6.88;6.00;;;;;;;;;;5057733;28;20197;-58
2021/07/08 10:22:13;;;;;;;7.90;5.35;;;;;;;;;;5064391;28;20200;-58
2021/07/08 10:24:39;;;;;;;4.65;4.15;;;;;;;;;;5065957;28;20533;-60
2021/07/08 10:27:06;;;;;;;4.70;4.32;;;;;;;;;;5063496;28;20756;-60
2021/07/08 10:29:32;;;;;;;5.07;4.00;;;;;;;;;;5068961;28;20946;-59
2021/07/08 10:31:58;;;;;;;4.47;3.47;;;;;;;;;;5053723;28;20185;-59
2021/07/08 10:34:23;;;;;;;4.35;3.95;;;;;;;;;;5065999;28;20193;-60
2021/07/08 10:36:51;;;;;;;4.55;3.05;;;;;;;;;;5069612;28;20280;-61
2021/07/08 10:39:19;;;;;;;3.90;3.03;;;;;;;;;;5061977;28;20205;-60
2021/07/08 10:41:49;;;;;;;3.65;2.67;;;;;;;;;;5057483;28;20184;-61
2021/07/08 10:44:41;;;;;;;4.20;2.60;;;;;;;;;;5060162;28;20185;-61
2021/07/08 10:47:31;;;;;;;4.75;3.03;;;;;;;;;;5046921;28;20251;-61
2021/07/08 10:49:57;;;;;;;4.60;3.05;;;;;;;;;;5045220;28;20572;-63
2021/07/08 10:52:46;;;;;;;4.40;2.97;;;;;;;;;;5066715;28;20200;-61
2021/07/08 10:55:32;;;;;;;3.08;2.40;;;;;;;;;;5067933;28;20221;-61
2021/07/08 10:57:57;;;;;;;3.88;2.70;;;;;;;;;;5067431;28;20196;-61
2021/07/08 11:00:42;;;;;;;3.45;2.55;;;;;;;;;;5066916;28;20260;-61
2021/07/08 11:03:44;;;;;;;2.88;2.50;;;;;;;;;;5067454;28;20230;-61
2021/07/08 11:06:13;;;;;;;3.40;2.55;;;;;;;;;;5060778;28;20193;-61
2021/07/08 11:08:44;;;;;;;2.90;2.65;;;;;;;;;;5063277;28;20196;-60
2021/07/08 11:11:22;;;;;;;4.10;2.63;;;;;;;;;;5069147;28;20185;-61
2021/07/08 11:13:48;;;;;;;4.32;2.78;;;;;;;;;;5067736;28;20343;-62
2021/07/08 11:16:45;;;;;;;5.53;2.60;;;;;;;;;;5067306;28;20588;-60
2021/07/08 11:19:29;;;;;;;4.30;2.25;;;;;;;;;;5057580;28;20206;-61
2021/07/08 11:21:56;;;;;;;3.53;2.70;;;;;;;;;;5061308;28;20274;-60
2021/07/08 11:24:23;;;;;;;4.32;2.55;;;;;;;;;;5065886;28;20624;-61
2021/07/08 11:27:00;;;;;;;4.10;2.00;;;;;;;;;;5066545;28;20189;-61
2021/07/08 11:29:34;;;;;;;3.10;2.15;;;;;;;;;;5060254;28;20226;-59
2021/07/08 11:32:00;;;;;;;2.53;2.00;;;;;;;;;;5066480;28;20189;-61
2021/07/08 11:34:28;;;;;;;4.60;2.13;;;;;;;;;;5067413;28;20208;-62
2021/07/08 11:36:55;;;;;;;3.28;2.08;;;;;;;;;;5062906;28;20190;-60
2021/07/08 11:39:26;;;;;;;3.45;2.22;;;;;;;;;;5062173;28;20208;-60
2021/07/08 11:41:54;;;;;;;2.08;1.80;;;;;;;;;;5061980;28;20189;-57
2021/07/08 11:44:29;;;;;;;2.90;2.03;;;;;;;;;;5061376;28;20181;-59
2021/07/08 11:46:56;;;;;;;2.65;2.00;;;;;;;;;;5055375;28;20200;-59
2021/07/08 11:49:22;;;;;;;3.00;1.88;;;;;;;;;;5067056;28;20205;-60
2021/07/08 11:51:47;;;;;;;2.70;1.80;;;;;;;;;;5053122;28;20200;-60
2021/07/08 11:54:14;;;;;;;3.38;2.00;;;;;;;;;;5054337;28;20596;-60
2021/07/08 11:56:39;;;;;;;3.00;2.08;;;;;;;;;;5054465;28;20182;-60
2021/07/08 11:59:04;;;;;;;4.32;2.00;;;;;;;;;;5058849;28;20202;-61
2021/07/08 12:01:30;;;;;;;3.05;1.85;;;;;;;;;;5066549;28;20204;-61
2021/07/08 12:03:55;;;;;;;3.20;1.90;;;;;;;;;;5041256;28;20185;-61
2021/07/08 12:06:24;;;;;;;2.88;2.10;;;;;;;;;;5048556;28;20315;-59
2021/07/08 12:08:51;;;;;;;3.40;2.03;;;;;;;;;;5067077;28;20402;-60
2021/07/08 12:11:28;;;;;;;2.28;1.70;;;;;;;;;;5060003;28;20324;-58
2021/07/08 12:14:00;;;;;;;2.58;1.45;;;;;;;;;;5037733;28;20753;-60
2021/07/08 12:16:36;;;;;;;2.53;1.80;;;;;;;;;;5059300;28;20197;-61
2021/07/08 12:19:29;;;;;;;2.72;2.10;;;;;;;;;;5077711;22;20565;-59
2021/07/08 12:21:57;;;;;;;4.07;2.13;;;;;;;;;;5044438;28;20678;-61
2021/07/08 12:24:27;;;;;;;4.38;2.15;;;;;;;;;;5039136;28;20239;-59
2021/07/08 12:26:58;;;;;;;3.00;2.00;;;;;;;;;;5042461;28;20229;-60
2021/07/08 12:29:36;;;;;;;2.53;2.05;;;;;;;;;;5043507;28;20567;-60
2021/07/08 12:32:07;;;;;;;2.78;1.98;;;;;;;;;;5040804;28;20670;-62
2021/07/08 12:34:43;;;;;;;3.30;2.10;;;;;;;;;;5047544;28;20269;-60
2021/07/08 12:37:21;;;;;;;1.80;1.70;;;;;;;;;;5046924;28;20607;-61
2021/07/08 12:40:09;;;;;;;2.95;1.70;;;;;;;;;;5041415;28;20198;-60
2021/07/08 12:42:38;;;;;;;4.05;1.80;;;;;;;;;;5045372;28;20581;-58
2021/07/08 12:45:12;;;;;;;4.35;2.30;;;;;;;;;;5051260;28;20564;-61
2021/07/08 12:47:41;;;;;;;2.20;1.70;;;;;;;;;;5029964;28;20194;-59
2021/07/08 12:50:08;;;;;;;2.20;2.00;;;;;;;;;;5036333;28;20581;-59
2021/07/08 12:52:37;;;;;;;2.22;2.05;;;;;;;;;;5047298;28;20190;-60
2021/07/08 12:55:04;;;;;;;3.45;2.70;;;;;;;;;;5046811;28;20186;-62
2021/07/08 12:57:29;;;;;;;2.47;2.28;;;;;;;;;;5034381;28;20268;-59
2021/07/08 13:00:06;;;;;;;4.43;2.30;;;;;;;;;;5051544;28;20297;-60
2021/07/08 13:02:36;;;;;;;4.88;2.58;;;;;;;;;;5053544;28;20671;-59
2021/07/08 13:05:08;;;;;;;2.72;2.28;;;;;;;;;;5053113;28;20191;-64
2021/07/08 13:07:35;;;;;;;2.40;2.20;;;;;;;;;;5046822;28;20248;-58
2021/07/08 13:10:04;;;;;;;4.68;2.38;;;;;;;;;;5049113;28;20205;-60
2021/07/08 13:12:30;;;;;;;2.85;2.10;;;;;;;;;;5053935;28;20198;-58
2021/07/08 13:14:56;;;;;;;4.18;2.28;;;;;;;;;;5053169;28;20669;-58
2021/07/08 13:17:26;;;;;;;4.47;2.20;;;;;;;;;;5039334;28;20198;-60
2021/07/08 13:20:23;;;;;;;4.10;2.10;;;;;;;;;;5052632;28;20267;-60
2021/07/08 13:22:48;;;;;;;3.30;2.75;;;;;;;;;;5047371;28;20206;-59
2021/07/08 13:25:20;;;;;;;3.47;3.17;;;;;;;;;;5052592;28;20263;-59
2021/07/08 13:27:50;;;;;;;4.57;3.20;;;;;;;;;;5052239;28;20273;-59
2021/07/08 13:30:25;;;;;;;3.55;2.70;;;;;;;;;;5050671;28;20209;-60
2021/07/08 13:33:00;;;;;;;3.00;2.70;;;;;;;;;;5052269;28;20189;-58
2021/07/08 13:35:54;;;;;;;3.20;3.00;;;;;;;;;;5049639;28;20564;-62
2021/07/08 13:38:21;;;;;;;4.15;3.25;;;;;;;;;;5048980;28;20185;-63
2021/07/08 13:41:12;;;;;;;3.67;3.10;;;;;;;;;;5044106;28;20449;-59
2021/07/08 13:43:39;;;;;;;3.53;3.00;;;;;;;;;;5053806;28;20193;-59
2021/07/08 13:46:19;;;;;;;11.82;3.30;;;;;;;;;;5048936;28;20236;-57
2021/07/08 13:48:46;;;;;;;3.70;3.40;;;;;;;;;;5053023;28;20281;-59
2021/07/08 13:51:12;;;;;;;3.47;3.17;;;;;;;;;;5051833;28;20681;-60
2021/07/08 13:53:38;;;;;;;5.43;4.00;;;;;;;;;;5054930;28;20192;-60
2021/07/08 13:56:06;;;;;;;8.40;4.63;;;;;;;;;;5054377;28;20684;-60
2021/07/08 13:58:31;;;;;;;5.03;4.53;;;;;;;;;;5052881;28;20248;-63
2021/07/08 14:00:57;;;;;;;4.53;3.90;;;;;;;;;;5056709;28;20202;-57
2021/07/08 14:03:23;;;;;;;5.35;4.30;;;;;;;;;;5038207;28;20193;-59
2021/07/08 14:05:48;;;;;;;6.43;5.53;;;;;;;;;;5056238;28;20339;-60
2021/07/08 14:08:16;;;;;;;6.20;5.60;;;;;;;;;;5034281;28;20311;-58
2021/07/08 14:10:42;;;;;;;6.43;5.55;;;;;;;;;;5049626;28;20213;-59
2021/07/08 14:13:07;;;;;;;6.53;5.82;;;;;;;;;;5040359;28;20182;-58
2021/07/08 14:15:32;;;;;;;7.85;6.13;;;;;;;;;;5055444;28;20181;-58
2021/07/08 14:17:58;;;;;;;8.63;5.95;;;;;;;;;;5052278;28;20218;-58
2021/07/08 14:20:23;;;;;;;5.90;5.32;;;;;;;;;;5048783;28;20201;-58
2021/07/08 14:22:48;;;;;;;6.30;5.68;;;;;;;;;;5049090;28;20190;-57
2021/07/08 14:25:14;;;;;;;5.30;4.90;;;;;;;;;;5049088;28;20194;-60
2021/07/08 14:27:39;;;;;;;6.25;5.63;;;;;;;;;;5049604;28;20217;-59
2021/07/08 14:30:06;;;;;;;7.97;5.75;;;;;;;;;;5027907;28;20210;-59
2021/07/08 14:32:31;;;;;;;5.80;5.30;;;;;;;;;;5041815;28;20264;-56
2021/07/08 14:34:56;;;;;;;6.13;4.80;;;;;;;;;;5042533;28;20209;-57
2021/07/08 14:37:21;;;;;;;4.55;4.15;;;;;;;;;;5048760;28;20792;-59
2021/07/08 14:39:47;;;;;;;5.43;4.05;;;;;;;;;;5049142;28;20208;-61
2021/07/08 14:42:26;;;;;;;7.93;4.10;;;;;;;;;;5049421;28;20236;-57
2021/07/08 14:45:00;;;;;;;3.17;2.88;;;;;;;;;;5048618;28;20175;-60